<?xml version="1.0" encoding="UTF-8" standalone="no" ?>
<gpx xmlns="http://www.topografix.com/GPX/1/1" xmlns:xsi="http://www.w3.org/2001/XMLSchema-instance" xsi:schemaLocation="http://www.topografix.com/GPX/1/1 http://www.topografix.com/GPX/1/1/gpx.xsd" version="1.1" creator="VisuGPX - https://www.visugpx.com">
  <metadata>
    <name>132011</name>
    <desc><![CDATA[partie de montagne russe 23.00
]]></desc>
  </metadata>
  <trk>
    <name><![CDATA[ACTIVE LOG131919]]></name>
    <trkseg>
      <trkpt lat="48.38324" lon="-4.50926">
        <ele>72.265</ele>
        <time>2011-04-12T11:19:19Z</time>
      </trkpt>
      <trkpt lat="48.38324" lon="-4.50926">
        <ele>68.618</ele>
        <time>2011-04-12T11:21:43Z</time>
      </trkpt>
      <trkpt lat="48.38324" lon="-4.50926">
        <ele>65.559</ele>
        <time>2011-04-12T11:22:01Z</time>
      </trkpt>
      <trkpt lat="48.38324" lon="-4.50926">
        <ele>62.332</ele>
        <time>2011-04-12T11:22:10Z</time>
      </trkpt>
      <trkpt lat="48.38324" lon="-4.50926">
        <ele>59.243</ele>
        <time>2011-04-12T11:22:29Z</time>
      </trkpt>
      <trkpt lat="48.38324" lon="-4.50926">
        <ele>58.35</ele>
        <time>2011-04-12T11:22:31Z</time>
      </trkpt>
      <trkpt lat="48.38324" lon="-4.50926">
        <ele>58.884</ele>
        <time>2011-04-12T11:22:35Z</time>
      </trkpt>
      <trkpt lat="48.38324" lon="-4.50926">
        <ele>60.203</ele>
        <time>2011-04-12T11:22:36Z</time>
      </trkpt>
      <trkpt lat="48.38324" lon="-4.50926">
        <ele>57.064</ele>
        <time>2011-04-12T11:22:38Z</time>
      </trkpt>
      <trkpt lat="48.38324" lon="-4.50926">
        <ele>55.549</ele>
        <time>2011-04-12T11:22:40Z</time>
      </trkpt>
      <trkpt lat="48.38324" lon="-4.50926">
        <ele>52.535</ele>
        <time>2011-04-12T11:22:49Z</time>
      </trkpt>
      <trkpt lat="48.38324" lon="-4.50926">
        <ele>55.613</ele>
        <time>2011-04-12T11:23:14Z</time>
      </trkpt>
      <trkpt lat="48.38324" lon="-4.50926">
        <ele>58.617</ele>
        <time>2011-04-12T11:23:25Z</time>
      </trkpt>
      <trkpt lat="48.38324" lon="-4.50926">
        <ele>61.764</ele>
        <time>2011-04-12T11:23:39Z</time>
      </trkpt>
      <trkpt lat="48.38324" lon="-4.50926">
        <ele>63.844</ele>
        <time>2011-04-12T11:23:45Z</time>
      </trkpt>
    </trkseg>
  </trk>
</gpx>